Lisa — WDE2705 — position and weather

sailwx.info

Track history (hours):
 
Tides and Currents Weather Stations Pressure Air Temp Water Temp Dewpoint Dewpoint Depression Visibility Wind Speed Wind Dir Waves Ship Positions

Lisa

Owner: Broussard Brothers, Inc., Abbeville, LA. More information available from US FCC via Universal Licensing System and Coast Guard Vessel Documentation Center.

Last reported at 2017-Sep-19 14:21 UTC. Time now 2017-Sep-22 09:54 UTC.
Position N 29°51' W 092°21'.

Length 21 m; draft 0.3 m.

MMSI: 367328540.

Date/timePositionNaut miles runAvg speedWind from/ knotsBaromVisibWave heightAir tempDewpointWater temp
2017-Sep-19 14:21N 29°51' W 092°21'2 6.6
2017-Sep-19 14:01N 29°50' W 092°19'3 6.2
2017-Sep-19 13:30N 29°48' W 092°16'3 6.9
2017-Sep-19 13:01N 29°47' W 092°12'2 3.3
2017-Sep-19 12:28N 29°47' W 092°10'0 0.1
2017-Sep-19 12:00N 29°47' W 092°10'1 1.8
2017-Sep-19 11:30N 29°47' W 092°11'0 0.0
2017-Sep-19 11:00N 29°47' W 092°11'0 0.0
2017-Sep-19 10:30N 29°47' W 092°11'0 0.0
2017-Sep-19 10:00N 29°47' W 092°11'0 0.0
2017-Sep-19 09:30N 29°47' W 092°11'0 0.0
2017-Sep-19 09:00N 29°47' W 092°11'0 0.0
2017-Sep-19 08:30N 29°47' W 092°11'0 0.0
2017-Sep-19 08:00N 29°47' W 092°11'0 0.0
2017-Sep-19 07:30N 29°47' W 092°11'0 0.0
2017-Sep-19 07:00N 29°47' W 092°11'0 0.0
2017-Sep-19 06:30N 29°47' W 092°11'0 0.0
2017-Sep-19 06:00N 29°47' W 092°11'0 0.0
2017-Sep-19 05:27N 29°47' W 092°11'0 0.0
2017-Sep-19 05:00N 29°47' W 092°11'0 0.0
2017-Sep-19 04:30N 29°47' W 092°11'0 0.0
2017-Sep-19 04:00N 29°47' W 092°11'0 0.0
2017-Sep-19 03:30N 29°47' W 092°11'0 0.0
2017-Sep-19 03:00N 29°47' W 092°11'0 0.0
2017-Sep-19 02:30N 29°47' W 092°11'1 1.8
2017-Sep-19 02:01N 29°47' W 092°10'2 3.5
2017-Sep-19 01:30N 29°48' W 092°08'2 3.6
2017-Sep-19 01:00N 29°47' W 092°10'1 1.3
2017-Sep-19 00:31N 29°47' W 092°11'0 0.3
2017-Sep-19 00:01N 29°47' W 092°11'3 6.2
2017-Sep-18 23:30N 29°48' W 092°08'3 2.4
2017-Sep-18 22:14N 29°51' W 092°07'1 6.0
2017-Sep-18 22:00N 29°50' W 092°08'2 4.1
2017-Sep-18 21:30N 29°48' W 092°08'2 4.9
2017-Sep-18 21:00N 29°46' W 092°10'4 7.6
2017-Sep-18 20:30N 29°44' W 092°14'8 1.6
2017-Sep-18 15:41N 29°37' W 092°17'2 8.7
2017-Sep-18 15:31N 29°38' W 092°16'5 9.2
2017-Sep-18 15:00N 29°43' W 092°15'3 5.7
2017-Sep-18 14:30N 29°45' W 092°15'6 7.1
2017-Sep-18 13:41N 29°44' W 092°21'0 0.6
2017-Sep-18 13:27N 29°44' W 092°21'0 0.9
2017-Sep-18 12:56N 29°44' W 092°21'2 4.2
2017-Sep-18 12:26N 29°45' W 092°19'2 5.0
2017-Sep-18 12:00N 29°45' W 092°17'2 3.4
2017-Sep-18 11:30N 29°47' W 092°16'1 3.0
2017-Sep-18 11:00N 29°48' W 092°15'2 3.6
2017-Sep-18 10:30N 29°47' W 092°13'2 3.2
2017-Sep-18 10:01N 29°47' W 092°11'2 3.5
2017-Sep-18 09:31N 29°47' W 092°09'1 2.6
2017-Sep-18 09:00N 29°48' W 092°08'2 3.1
2017-Sep-18 08:31N 29°49' W 092°08'1 2.5
2017-Sep-18 08:01N 29°51' W 092°08'1 0.1
2017-Sep-17 21:13N 29°51' W 092°07'1 5.8
2017-Sep-17 21:00N 29°50' W 092°08'3 5.3
2017-Sep-17 20:31N 29°48' W 092°08'2 4.6
2017-Sep-17 20:00N 29°47' W 092°11'0 0.8
2017-Sep-17 19:30N 29°47' W 092°11'0 0.0
2017-Sep-17 19:00N 29°47' W 092°11'0 0.0
2017-Sep-17 18:30N 29°47' W 092°11'0 0.0
2017-Sep-17 18:00N 29°47' W 092°11'0 0.0
2017-Sep-17 17:30N 29°47' W 092°11'0 0.0
2017-Sep-17 17:00N 29°47' W 092°11'0 0.0
2017-Sep-17 16:30N 29°47' W 092°11'0 0.1
2017-Sep-17 16:00N 29°47' W 092°11'0 0.0
2017-Sep-17 15:30N 29°47' W 092°11'0 0.1
2017-Sep-17 15:00N 29°47' W 092°11'0 0.0
2017-Sep-17 14:30N 29°47' W 092°11'0 0.0
2017-Sep-17 14:00N 29°47' W 092°11'0 0.1
2017-Sep-17 13:30N 29°47' W 092°11'1 1.8
2017-Sep-17 13:00N 29°47' W 092°10'0 0.1
2017-Sep-17 12:31N 29°47' W 092°10'0 0.3
2017-Sep-17 12:00N 29°47' W 092°10'1 0.1
2017-Sep-17 00:09N 29°47' W 092°11'0 0.0
2017-Sep-17 00:00N 29°47' W 092°11'0 0.0
2017-Sep-16 23:31N 29°47' W 092°11'0 0.0
2017-Sep-16 23:00N 29°47' W 092°11'0 0.0
2017-Sep-16 22:31N 29°47' W 092°11'0 0.0
2017-Sep-16 22:01N 29°47' W 092°11'1 1.8
2017-Sep-16 21:31N 29°47' W 092°10'2 4.6
2017-Sep-16 21:00N 29°45' W 092°12'  
Track history (hours):
 
Tides and Currents Weather Stations Pressure Air Temp Water Temp Dewpoint Dewpoint Depression Visibility Wind Speed Wind Dir Waves Ship Positions

Lisa

Owner: Broussard Brothers, Inc., Abbeville, LA. More information available from US FCC via Universal Licensing System and Coast Guard Vessel Documentation Center.

Last reported at 2017-Sep-19 14:21 UTC. Time now 2017-Sep-22 09:54 UTC.
Position N 29°51' W 092°21'.

Length 21 m; draft 0.3 m.

MMSI: 367328540.

Date/timePositionNaut miles runAvg speedWind from/ knotsBaromVisibWave heightAir tempDewpointWater temp
2017-Sep-19 14:21N 29°51' W 092°21'2 6.6
2017-Sep-19 14:01N 29°50' W 092°19'3 6.2
2017-Sep-19 13:30N 29°48' W 092°16'3 6.9
2017-Sep-19 13:01N 29°47' W 092°12'2 3.3
2017-Sep-19 12:28N 29°47' W 092°10'0 0.1
2017-Sep-19 12:00N 29°47' W 092°10'1 1.8
2017-Sep-19 11:30N 29°47' W 092°11'0 0.0
2017-Sep-19 11:00N 29°47' W 092°11'0 0.0
2017-Sep-19 10:30N 29°47' W 092°11'0 0.0
2017-Sep-19 10:00N 29°47' W 092°11'0 0.0
2017-Sep-19 09:30N 29°47' W 092°11'0 0.0
2017-Sep-19 09:00N 29°47' W 092°11'0 0.0
2017-Sep-19 08:30N 29°47' W 092°11'0 0.0
2017-Sep-19 08:00N 29°47' W 092°11'0 0.0
2017-Sep-19 07:30N 29°47' W 092°11'0 0.0
2017-Sep-19 07:00N 29°47' W 092°11'0 0.0
2017-Sep-19 06:30N 29°47' W 092°11'0 0.0
2017-Sep-19 06:00N 29°47' W 092°11'0 0.0
2017-Sep-19 05:27N 29°47' W 092°11'0 0.0
2017-Sep-19 05:00N 29°47' W 092°11'0 0.0
2017-Sep-19 04:30N 29°47' W 092°11'0 0.0
2017-Sep-19 04:00N 29°47' W 092°11'0 0.0
2017-Sep-19 03:30N 29°47' W 092°11'0 0.0
2017-Sep-19 03:00N 29°47' W 092°11'0 0.0
2017-Sep-19 02:30N 29°47' W 092°11'1 1.8
2017-Sep-19 02:01N 29°47' W 092°10'2 3.5
2017-Sep-19 01:30N 29°48' W 092°08'2 3.6
2017-Sep-19 01:00N 29°47' W 092°10'1 1.3
2017-Sep-19 00:31N 29°47' W 092°11'0 0.3
2017-Sep-19 00:01N 29°47' W 092°11'3 6.2
2017-Sep-18 23:30N 29°48' W 092°08'3 2.4
2017-Sep-18 22:14N 29°51' W 092°07'1 6.0
2017-Sep-18 22:00N 29°50' W 092°08'2 4.1
2017-Sep-18 21:30N 29°48' W 092°08'2 4.9
2017-Sep-18 21:00N 29°46' W 092°10'4 7.6
2017-Sep-18 20:30N 29°44' W 092°14'8 1.6
2017-Sep-18 15:41N 29°37' W 092°17'2 8.7
2017-Sep-18 15:31N 29°38' W 092°16'5 9.2
2017-Sep-18 15:00N 29°43' W 092°15'3 5.7
2017-Sep-18 14:30N 29°45' W 092°15'6 7.1
2017-Sep-18 13:41N 29°44' W 092°21'0 0.6
2017-Sep-18 13:27N 29°44' W 092°21'0 0.9
2017-Sep-18 12:56N 29°44' W 092°21'2 4.2
2017-Sep-18 12:26N 29°45' W 092°19'2 5.0
2017-Sep-18 12:00N 29°45' W 092°17'2 3.4
2017-Sep-18 11:30N 29°47' W 092°16'1 3.0
2017-Sep-18 11:00N 29°48' W 092°15'2 3.6
2017-Sep-18 10:30N 29°47' W 092°13'2 3.2
2017-Sep-18 10:01N 29°47' W 092°11'2 3.5
2017-Sep-18 09:31N 29°47' W 092°09'1 2.6
2017-Sep-18 09:00N 29°48' W 092°08'2 3.1
2017-Sep-18 08:31N 29°49' W 092°08'1 2.5
2017-Sep-18 08:01N 29°51' W 092°08'1 0.1
2017-Sep-17 21:13N 29°51' W 092°07'1 5.8
2017-Sep-17 21:00N 29°50' W 092°08'3 5.3
2017-Sep-17 20:31N 29°48' W 092°08'2 4.6
2017-Sep-17 20:00N 29°47' W 092°11'0 0.8
2017-Sep-17 19:30N 29°47' W 092°11'0 0.0
2017-Sep-17 19:00N 29°47' W 092°11'0 0.0
2017-Sep-17 18:30N 29°47' W 092°11'0 0.0
2017-Sep-17 18:00N 29°47' W 092°11'0 0.0
2017-Sep-17 17:30N 29°47' W 092°11'0 0.0
2017-Sep-17 17:00N 29°47' W 092°11'0 0.0
2017-Sep-17 16:30N 29°47' W 092°11'0 0.1
2017-Sep-17 16:00N 29°47' W 092°11'0 0.0
2017-Sep-17 15:30N 29°47' W 092°11'0 0.1
2017-Sep-17 15:00N 29°47' W 092°11'0 0.0
2017-Sep-17 14:30N 29°47' W 092°11'0 0.0
2017-Sep-17 14:00N 29°47' W 092°11'0 0.1
2017-Sep-17 13:30N 29°47' W 092°11'1 1.8
2017-Sep-17 13:00N 29°47' W 092°10'0 0.1
2017-Sep-17 12:31N 29°47' W 092°10'0 0.3
2017-Sep-17 12:00N 29°47' W 092°10'1 0.1
2017-Sep-17 00:09N 29°47' W 092°11'0 0.0
2017-Sep-17 00:00N 29°47' W 092°11'0 0.0
2017-Sep-16 23:31N 29°47' W 092°11'0 0.0
2017-Sep-16 23:00N 29°47' W 092°11'0 0.0
2017-Sep-16 22:31N 29°47' W 092°11'0 0.0
2017-Sep-16 22:01N 29°47' W 092°11'1 1.8
2017-Sep-16 21:31N 29°47' W 092°10'2 4.6
2017-Sep-16 21:00N 29°45' W 092°12'  

Dump ship's entire track history